sensor_id;sensor_type;location;lat;lon;timestamp;pressure;altitude;pressure_sealevel;temperature;humidity
8515;BME280;4295;51.024;7.000;2022-12-24T00:01:49;141338.47;;;-13.58;100.00
8515;BME280;4295;51.024;7.000;2022-12-24T00:04:14;141318.53;;;-13.66;100.00
8515;BME280;4295;51.024;7.000;2022-12-24T00:06:40;141312.28;;;-13.68;100.00
8515;BME280;4295;51.024;7.000;2022-12-24T00:09:05;141329.72;;;-13.61;100.00
8515;BME280;4295;51.024;7.000;2022-12-24T00:11:30;141317.28;;;-13.66;100.00
8515;BME280;4295;51.024;7.000;2022-12-24T00:13:56;141316.00;;;-13.67;100.00
8515;BME280;4295;51.024;7.000;2022-12-24T00:16:21;141297.31;;;-13.75;100.00
8515;BME280;4295;51.024;7.000;2022-12-24T00:18:47;141309.78;;;-13.70;100.00
8515;BME280;4295;51.024;7.000;2022-12-24T00:21:13;141283.59;;;-13.80;100.00
8515;BME280;4295;51.024;7.000;2022-12-24T00:23:39;141298.59;;;-13.74;100.00
8515;BME280;4295;51.024;7.000;2022-12-24T00:26:05;141294.81;;;-13.76;100.00
8515;BME280;4295;51.024;7.000;2022-12-24T00:28:30;141284.88;;;-13.80;100.00
8515;BME280;4295;51.024;7.000;2022-12-24T00:30:55;141263.69;;;-13.88;100.00
8515;BME280;4295;51.024;7.000;2022-12-24T00:33:21;141278.59;;;-13.82;100.00
8515;BME280;4295;51.024;7.000;2022-12-24T00:35:49;141267.38;;;-13.87;100.00
8515;BME280;4295;51.024;7.000;2022-12-24T00:38:14;141261.16;;;-13.89;100.00
8515;BME280;4295;51.024;7.000;2022-12-24T00:40:40;141252.41;;;-13.93;100.00
8515;BME280;4295;51.024;7.000;2022-12-24T00:43:05;141248.72;;;-13.94;100.00
8515;BME280;4295;51.024;7.000;2022-12-24T00:45:30;141256.19;;;-13.91;100.00
8515;BME280;4295;51.024;7.000;2022-12-24T00:47:56;141259.91;;;-13.90;100.00
8515;BME280;4295;51.024;7.000;2022-12-24T00:50:21;141273.63;;;-13.84;100.00
8515;BME280;4295;51.024;7.000;2022-12-24T00:52:46;141271.09;;;-13.85;100.00
8515;BME280;4295;51.024;7.000;2022-12-24T00:55:12;141266.13;;;-13.87;100.00
8515;BME280;4295;51.024;7.000;2022-12-24T00:57:37;141264.88;;;-13.88;100.00
8515;BME280;4295;51.024;7.000;2022-12-24T01:00:03;141282.34;;;-13.81;100.00
8515;BME280;4295;51.024;7.000;2022-12-24T01:02:29;141298.59;;;-13.74;100.00
8515;BME280;4295;51.024;7.000;2022-12-24T01:04:54;141267.38;;;-13.87;100.00
8515;BME280;4295;51.024;7.000;2022-12-24T01:07:43;141291.09;;;-13.77;100.00
8515;BME280;4295;51.024;7.000;2022-12-24T01:10:10;141291.09;;;-13.77;100.00
8515;BME280;4295;51.024;7.000;2022-12-24T01:12:36;141294.81;;;-13.76;100.00
8515;BME280;4295;51.024;7.000;2022-12-24T01:15:02;141294.81;;;-13.76;100.00
8515;BME280;4295;51.024;7.000;2022-12-24T01:17:27;141284.88;;;-13.80;100.00
8515;BME280;4295;51.024;7.000;2022-12-24T01:19:52;137029.22;;;-13.80;100.00
8515;BME280;4295;51.024;7.000;2022-12-24T01:22:18;131524.78;;;-13.83;100.00
8515;BME280;4295;51.024;7.000;2022-12-24T01:24:43;126975.41;;;-13.86;100.00
8515;BME280;4295;51.024;7.000;2022-12-24T01:27:09;124033.13;;;-13.98;100.00
8515;BME280;4295;51.024;7.000;2022-12-24T01:29:34;123726.72;;;-13.90;100.00
8515;BME280;4295;51.024;7.000;2022-12-24T01:32:00;124695.34;;;-13.91;100.00
8515;BME280;4295;51.024;7.000;2022-12-24T01:34:25;125663.06;;;-13.93;100.00
8515;BME280;4295;51.024;7.000;2022-12-24T01:36:50;126631.00;;;-13.95;100.00
8515;BME280;4295;51.024;7.000;2022-12-24T01:39:16;127931.28;;;-13.94;100.00
8515;BME280;4295;51.024;7.000;2022-12-24T01:41:41;129889.13;;;-13.89;100.00
8515;BME280;4295;51.024;7.000;2022-12-24T01:44:37;133461.81;;;-13.89;100.00
8515;BME280;4295;51.024;7.000;2022-12-24T01:49:32;138018.47;;;-13.75;100.00
8515;BME280;4295;51.024;7.000;2022-12-24T01:52:03;141297.31;;;-13.75;100.00
8515;BME280;4295;51.024;7.000;2022-12-24T01:57:09;141286.06;;;-13.79;100.00
8515;BME280;4295;51.024;7.000;2022-12-24T01:59:37;141286.06;;;-13.79;100.00
8515;BME280;4295;51.024;7.000;2022-12-24T02:02:04;141286.06;;;-13.79;100.00
8515;BME280;4295;51.024;7.000;2022-12-24T02:04:35;141271.09;;;-13.85;100.00
8515;BME280;4295;51.024;7.000;2022-12-24T02:07:01;141261.16;;;-13.89;100.00
8515;BME280;4295;51.024;7.000;2022-12-24T02:09:27;141268.66;;;-13.86;100.00
8515;BME280;4295;51.024;7.000;2022-12-24T02:11:52;141267.38;;;-13.87;100.00
8515;BME280;4295;51.024;7.000;2022-12-24T02:14:18;141262.41;;;-13.89;100.00
8515;BME280;4295;51.024;7.000;2022-12-24T02:29:47;141206.28;;;-14.11;100.00
8515;BME280;4295;51.024;7.000;2022-12-24T02:32:23;141197.59;;;-14.15;100.00
8515;BME280;4295;51.024;7.000;2022-12-24T02:34:55;141180.13;;;-14.22;100.00
8515;BME280;4295;51.024;7.000;2022-12-24T02:37:28;141191.31;;;-14.17;100.00
8515;BME280;4295;51.024;7.000;2022-12-24T02:40:07;141185.09;;;-14.20;100.00
8515;BME280;4295;51.024;7.000;2022-12-24T02:42:39;141180.13;;;-14.22;100.00
8515;BME280;4295;51.024;7.000;2022-12-24T02:45:09;141172.63;;;-14.25;100.00
8515;BME280;4295;51.024;7.000;2022-12-24T02:47:36;141180.13;;;-14.22;100.00
8515;BME280;4295;51.024;7.000;2022-12-24T02:50:07;141176.41;;;-14.23;100.00
8515;BME280;4295;51.024;7.000;2022-12-24T02:52:37;141171.38;;;-14.26;100.00
8515;BME280;4295;51.024;7.000;2022-12-24T02:55:10;141186.34;;;-14.19;100.00
8515;BME280;4295;51.024;7.000;2022-12-24T03:00:09;140633.31;;;-14.16;100.00
8515;BME280;4295;51.024;7.000;2022-12-24T03:05:29;140019.56;;;-13.98;100.00
8515;BME280;4295;51.024;7.000;2022-12-24T03:08:15;140734.03;;;-14.00;100.00
8515;BME280;4295;51.024;7.000;2022-12-24T03:13:23;141249.91;;;-13.94;100.00
8515;BME280;4295;51.024;7.000;2022-12-24T03:15:49;140555.91;;;-13.97;100.00
8515;BME280;4295;51.024;7.000;2022-12-24T03:18:20;137501.28;;;-13.98;100.00
8515;BME280;4295;51.024;7.000;2022-12-24T03:23:18;121422.28;;;-14.07;100.00
8515;BME280;4295;51.024;7.000;2022-12-24T03:25:44;116247.03;;;-14.08;100.00
8515;BME280;4295;51.024;7.000;2022-12-24T03:28:14;113971.59;;;-14.15;100.00
8515;BME280;4295;51.024;7.000;2022-12-24T03:30:42;111394.28;;;-14.12;100.00
8515;BME280;4295;51.024;7.000;2022-12-24T03:33:09;112363.44;;;-14.12;100.00
8515;BME280;4295;51.024;7.000;2022-12-24T03:35:35;113338.88;;;-14.08;100.00
8515;BME280;4295;51.024;7.000;2022-12-24T03:38:00;114950.59;;;-14.10;100.00
8515;BME280;4295;51.024;7.000;2022-12-24T03:40:25;115918.75;;;-14.10;100.00
8515;BME280;4295;51.024;7.000;2022-12-24T03:42:51;114314.75;;;-14.05;100.00
8515;BME280;4295;51.024;7.000;2022-12-24T03:45:16;111717.97;;;-14.12;100.00
8515;BME280;4295;51.024;7.000;2022-12-24T03:47:42;109767.59;;;-14.19;100.00
8515;BME280;4295;51.024;7.000;2022-12-24T03:50:07;107500.41;;;-14.25;100.00
8515;BME280;4295;51.024;7.000;2022-12-24T03:52:32;106532.81;;;-14.26;100.00
8515;BME280;4295;51.024;7.000;2022-12-24T03:54:58;107170.53;;;-14.29;100.00
8515;BME280;4295;51.024;7.000;2022-12-24T03:57:23;107824.59;;;-14.24;100.00
8515;BME280;4295;51.024;7.000;2022-12-24T03:59:49;108153.63;;;-14.20;100.00
8515;BME280;4295;51.024;7.000;2022-12-24T04:02:14;108798.34;;;-14.20;100.00
8515;BME280;4295;51.024;7.000;2022-12-24T04:04:40;110724.38;;;-14.25;100.00
8515;BME280;4295;51.024;7.000;2022-12-24T04:07:05;112334.53;;;-14.27;100.00
8515;BME280;4295;51.024;7.000;2022-12-24T04:09:31;113628.53;;;-14.25;100.00
8515;BME280;4295;51.024;7.000;2022-12-24T04:11:56;114913.91;;;-14.28;100.00
8515;BME280;4295;51.024;7.000;2022-12-24T04:14:22;114916.97;;;-14.27;100.00
8515;BME280;4295;51.024;7.000;2022-12-24T04:16:47;115871.53;;;-14.34;100.00
8515;BME280;4295;51.024;7.000;2022-12-24T04:19:12;117167.78;;;-14.32;100.00
8515;BME280;4295;51.024;7.000;2022-12-24T04:21:38;117180.25;;;-14.26;100.00
8515;BME280;4295;51.024;7.000;2022-12-24T04:24:03;118147.72;;;-14.27;100.00
8515;BME280;4295;51.024;7.000;2022-12-24T04:26:29;118786.84;;;-14.30;100.00
8515;BME280;4295;51.024;7.000;2022-12-24T04:28:54;118798.44;;;-14.24;100.00
8515;BME280;4295;51.024;7.000;2022-12-24T04:31:19;119747.25;;;-14.35;100.00
8515;BME280;4295;51.024;7.000;2022-12-24T04:33:45;119736.66;;;-14.40;100.00
8515;BME280;4295;51.024;7.000;2022-12-24T04:36:16;119421.84;;;-14.36;100.00
8515;BME280;4295;51.024;7.000;2022-12-24T04:38:42;119758.88;;;-14.29;100.00
8515;BME280;4295;51.024;7.000;2022-12-24T04:41:11;121052.53;;;-14.29;100.00
8515;BME280;4295;51.024;7.000;2022-12-24T04:43:37;120411.00;;;-14.27;100.00
8515;BME280;4295;51.024;7.000;2022-12-24T04:46:08;120734.47;;;-14.27;100.00
8515;BME280;4295;51.024;7.000;2022-12-24T04:48:34;121683.44;;;-14.37;100.00
8515;BME280;4295;51.024;7.000;2022-12-24T04:51:01;121683.44;;;-14.37;100.00
8515;BME280;4295;51.024;7.000;2022-12-24T04:53:27;121361.03;;;-14.36;100.00
8515;BME280;4295;51.024;7.000;2022-12-24T04:55:53;119426.06;;;-14.34;100.00
8515;BME280;4295;51.024;7.000;2022-12-24T04:58:18;118464.66;;;-14.30;100.00
8515;BME280;4295;51.024;7.000;2022-12-24T05:00:43;118139.34;;;-14.31;100.00
8515;BME280;4295;51.024;7.000;2022-12-24T05:03:09;117174.00;;;-14.29;100.00
8515;BME280;4295;51.024;7.000;2022-12-24T05:05:34;117161.59;;;-14.35;100.00
8515;BME280;4295;51.024;7.000;2022-12-24T05:07:59;116503.06;;;-14.41;100.00
8515;BME280;4295;51.024;7.000;2022-12-24T05:10:25;116170.81;;;-14.45;100.00
8515;BME280;4295;51.024;7.000;2022-12-24T05:12:50;115201.09;;;-14.46;100.00
8515;BME280;4295;51.024;7.000;2022-12-24T05:15:15;114560.53;;;-14.43;100.00
8515;BME280;4295;51.024;7.000;2022-12-24T05:17:41;113274.59;;;-14.41;100.00
8515;BME280;4295;51.024;7.000;2022-12-24T05:20:06;112632.25;;;-14.39;100.00
8515;BME280;4295;51.024;7.000;2022-12-24T05:22:32;112002.88;;;-14.31;100.00
8515;BME280;4295;51.024;7.000;2022-12-24T05:25:16;112314.59;;;-14.37;100.00
8515;BME280;4295;51.024;7.000;2022-12-24T05:27:59;112948.91;;;-14.42;100.00
8515;BME280;4295;51.024;7.000;2022-12-24T05:30:25;112627.28;;;-14.42;100.00
8515;BME280;4295;51.024;7.000;2022-12-24T05:32:50;111342.91;;;-14.39;100.00
8515;BME280;4295;51.024;7.000;2022-12-24T05:35:16;111653.56;;;-14.45;100.00
8515;BME280;4295;51.024;7.000;2022-12-24T05:37:41;111644.59;;;-14.49;100.00
8515;BME280;4295;51.024;7.000;2022-12-24T05:40:07;110681.19;;;-14.47;100.00
8515;BME280;4295;51.024;7.000;2022-12-24T05:42:32;109718.91;;;-14.45;100.00
8515;BME280;4295;51.024;7.000;2022-12-24T05:44:57;108763.59;;;-14.39;100.00
8515;BME280;4295;51.024;7.000;2022-12-24T05:47:23;109382.97;;;-14.52;100.00
8515;BME280;4295;51.024;7.000;2022-12-24T05:49:48;108420.09;;;-14.50;100.00
8515;BME280;4295;51.024;7.000;2022-12-24T05:52:13;109044.22;;;-14.60;100.00
8515;BME280;4295;51.024;7.000;2022-12-24T05:54:39;107745.09;;;-14.66;100.00
8515;BME280;4295;51.024;7.000;2022-12-24T05:57:04;106770.53;;;-14.70;100.00
8515;BME280;4295;51.024;7.000;2022-12-24T05:59:29;104841.28;;;-14.69;100.00
8515;BME280;4295;51.024;7.000;2022-12-24T06:01:55;103241.97;;;-14.64;100.00
8515;BME280;4295;51.024;7.000;2022-12-24T06:04:20;102281.75;;;-14.62;100.00
8515;BME280;4295;51.024;7.000;2022-12-24T06:06:45;101961.97;;;-14.61;100.00
8515;BME280;4295;51.024;7.000;2022-12-24T06:09:11;101317.16;;;-14.62;100.00
8515;BME280;4295;51.024;7.000;2022-12-24T06:11:36;100666.16;;;-14.66;100.00
8515;BME280;4295;51.024;7.000;2022-12-24T06:14:02;100345.69;;;-14.66;100.00
8515;BME280;4295;51.024;7.000;2022-12-24T06:16:27;99053.34;;;-14.70;100.00
8515;BME280;4295;51.024;7.000;2022-12-24T06:18:52;98731.28;;;-14.70;100.00
8515;BME280;4295;51.024;7.000;2022-12-24T06:21:18;97136.00;;;-14.64;100.00
8515;BME280;4295;51.024;7.000;2022-12-24T06:23:44;96181.50;;;-14.59;100.00
8515;BME280;4295;51.024;7.000;2022-12-24T06:26:13;96497.38;;;-14.62;100.00
8515;BME280;4295;51.024;7.000;2022-12-24T06:28:38;96182.34;;;-14.59;100.00
8515;BME280;4295;51.024;7.000;2022-12-24T06:31:05;96808.03;;;-14.68;100.00
8515;BME280;4295;51.024;7.000;2022-12-24T06:33:31;96172.88;;;-14.64;100.00
8515;BME280;4295;51.024;7.000;2022-12-24T06:35:57;95530.13;;;-14.65;100.00
8515;BME280;4295;51.024;7.000;2022-12-24T06:38:23;95520.75;;;-14.70;100.00
8515;BME280;4295;51.024;7.000;2022-12-24T06:40:48;95836.53;;;-14.73;100.00
8515;BME280;4295;51.024;7.000;2022-12-24T06:43:14;95512.19;;;-14.75;100.00
8515;BME280;4295;51.024;7.000;2022-12-24T06:45:42;95189.66;;;-14.76;100.00
8515;BME280;4295;51.024;7.000;2022-12-24T06:48:08;94233.13;;;-14.73;100.00
8515;BME280;4295;51.024;7.000;2022-12-24T06:50:33;95175.22;;;-14.85;100.00
8515;BME280;4295;51.024;7.000;2022-12-24T06:52:58;92951.97;;;-14.72;100.00
8515;BME280;4295;51.024;7.000;2022-12-24T06:55:24;92940.31;;;-14.79;100.00
8515;BME280;4295;51.024;7.000;2022-12-24T06:57:49;91996.72;;;-14.68;100.00
8515;BME280;4295;51.024;7.000;2022-12-24T07:00:15;92635.47;;;-14.69;100.00
8515;BME280;4295;51.024;7.000;2022-12-24T07:02:41;92320.63;;;-14.66;100.00
8515;BME280;4295;51.024;7.000;2022-12-24T07:05:08;92326.41;;;-14.62;100.00
8515;BME280;4295;51.024;7.000;2022-12-24T07:07:36;92655.34;;;-14.57;100.00
8515;BME280;4295;51.024;7.000;2022-12-24T07:10:02;93937.56;;;-14.58;100.00
8515;BME280;4295;51.024;7.000;2022-12-24T07:12:28;94273.56;;;-14.49;100.00
8515;BME280;4295;51.024;7.000;2022-12-24T07:14:53;96179.78;;;-14.60;100.00
8515;BME280;4295;51.024;7.000;2022-12-24T07:17:19;97464.94;;;-14.60;100.00
8515;BME280;4295;51.024;7.000;2022-12-24T07:19:44;98124.78;;;-14.50;100.00
8515;BME280;4295;51.024;7.000;2022-12-24T07:22:09;100064.44;;;-14.43;100.00
8515;BME280;4295;51.024;7.000;2022-12-24T07:24:35;102304.50;;;-14.49;100.00
8515;BME280;4295;51.024;7.000;2022-12-24T07:27:00;103602.38;;;-14.43;100.00
8515;BME280;4295;51.024;7.000;2022-12-24T07:29:25;106801.88;;;-14.54;100.00
8515;BME280;4295;51.024;7.000;2022-12-24T07:31:51;108090.22;;;-14.54;100.00
8515;BME280;4295;51.024;7.000;2022-12-24T07:34:16;108104.63;;;-14.46;100.00
8515;BME280;4295;51.024;7.000;2022-12-24T07:36:41;109070.38;;;-14.47;100.00
8515;BME280;4295;51.024;7.000;2022-12-24T07:39:07;109705.25;;;-14.52;100.00
8515;BME280;4295;51.024;7.000;2022-12-24T07:41:32;110030.53;;;-14.50;100.00
8515;BME280;4295;51.024;7.000;2022-12-24T07:43:57;110692.97;;;-14.41;100.00
8515;BME280;4295;51.024;7.000;2022-12-24T07:46:23;112929.84;;;-14.52;100.00
8515;BME280;4295;51.024;7.000;2022-12-24T07:48:48;112940.88;;;-14.46;100.00
8515;BME280;4295;51.024;7.000;2022-12-24T07:51:13;113892.75;;;-14.54;100.00
8515;BME280;4295;51.024;7.000;2022-12-24T07:53:39;113252.47;;;-14.52;100.00
8515;BME280;4295;51.024;7.000;2022-12-24T07:56:11;113253.47;;;-14.51;100.00
8515;BME280;4295;51.024;7.000;2022-12-24T07:58:36;113256.47;;;-14.50;100.00
8515;BME280;4295;51.024;7.000;2022-12-24T08:01:01;113902.84;;;-14.49;100.00
8515;BME280;4295;51.024;7.000;2022-12-24T08:03:27;114886.44;;;-14.42;100.00
8515;BME280;4295;51.024;7.000;2022-12-24T08:05:52;115553.66;;;-14.31;100.00
8515;BME280;4295;51.024;7.000;2022-12-24T08:08:18;118145.63;;;-14.28;100.00
8515;BME280;4295;51.024;7.000;2022-12-24T08:10:44;120708.81;;;-14.39;100.00
8515;BME280;4295;51.024;7.000;2022-12-24T08:13:10;120404.63;;;-14.30;100.00
8515;BME280;4295;51.024;7.000;2022-12-24T08:15:36;121363.16;;;-14.35;100.00
8515;BME280;4295;51.024;7.000;2022-12-24T08:18:01;121050.41;;;-14.30;100.00
8515;BME280;4295;51.024;7.000;2022-12-24T08:20:26;120716.28;;;-14.35;100.00
8515;BME280;4295;51.024;7.000;2022-12-24T08:22:52;119753.56;;;-14.32;100.00
8515;BME280;4295;51.024;7.000;2022-12-24T08:25:18;120074.88;;;-14.33;100.00
8515;BME280;4295;51.024;7.000;2022-12-24T08:27:44;120403.53;;;-14.30;100.00
8515;BME280;4295;51.024;7.000;2022-12-24T08:30:10;119131.22;;;-14.20;100.00
8515;BME280;4295;51.024;7.000;2022-12-24T08:32:36;119457.78;;;-14.18;100.00
8515;BME280;4295;51.024;7.000;2022-12-24T08:35:01;120419.53;;;-14.22;100.00
8515;BME280;4295;51.024;7.000;2022-12-24T08:37:27;122020.97;;;-14.30;100.00
8515;BME280;4295;51.024;7.000;2022-12-24T08:39:52;121062.22;;;-14.24;100.00
8515;BME280;4295;51.024;7.000;2022-12-24T08:42:17;121076.16;;;-14.18;100.00
8515;BME280;4295;51.024;7.000;2022-12-24T08:44:43;120762.25;;;-14.13;100.00
8515;BME280;4295;51.024;7.000;2022-12-24T08:47:08;120428.06;;;-14.18;100.00
8515;BME280;4295;51.024;7.000;2022-12-24T08:49:33;118507.72;;;-14.09;100.00
8515;BME280;4295;51.024;7.000;2022-12-24T08:51:59;119137.56;;;-14.17;100.00
8515;BME280;4295;51.024;7.000;2022-12-24T08:54:24;118173.88;;;-14.14;100.00
8515;BME280;4295;51.024;7.000;2022-12-24T08:56:50;118813.16;;;-14.17;100.00
8515;BME280;4295;51.024;7.000;2022-12-24T08:59:15;118501.41;;;-14.12;100.00
8515;BME280;4295;51.024;7.000;2022-12-24T09:01:41;120108.84;;;-14.16;100.00
8515;BME280;4295;51.024;7.000;2022-12-24T09:04:06;119148.13;;;-14.12;100.00
8515;BME280;4295;51.024;7.000;2022-12-24T09:06:32;119779.03;;;-14.19;100.00
8515;BME280;4295;51.024;7.000;2022-12-24T09:08:57;119151.28;;;-14.10;100.00
8515;BME280;4295;51.024;7.000;2022-12-24T09:11:23;119796.00;;;-14.11;100.00
8515;BME280;4295;51.024;7.000;2022-12-24T09:13:49;119804.53;;;-14.07;100.00
8515;BME280;4295;51.024;7.000;2022-12-24T09:16:14;119800.28;;;-14.09;100.00
8515;BME280;4295;51.024;7.000;2022-12-24T09:18:40;119158.69;;;-14.07;100.00
8515;BME280;4295;51.024;7.000;2022-12-24T09:21:08;120746.22;;;-14.21;100.00
8515;BME280;4295;51.024;7.000;2022-12-24T09:23:37;119788.63;;;-14.15;100.00
8515;BME280;4295;51.024;7.000;2022-12-24T09:26:12;118833.16;;;-14.08;100.00
8515;BME280;4295;51.024;7.000;2022-12-24T09:28:38;119157.63;;;-14.07;100.00
8515;BME280;4295;51.024;7.000;2022-12-24T09:31:04;118511.91;;;-14.07;100.00
8515;BME280;4295;51.024;7.000;2022-12-24T09:33:33;119467.28;;;-14.14;100.00
8515;BME280;4295;51.024;7.000;2022-12-24T09:35:59;118819.47;;;-14.14;100.00
8515;BME280;4295;51.024;7.000;2022-12-24T09:38:25;118180.16;;;-14.11;100.00
8515;BME280;4295;51.024;7.000;2022-12-24T09:40:52;116904.78;;;-14.02;100.00
8515;BME280;4295;51.024;7.000;2022-12-24T09:43:20;116891.34;;;-14.09;100.00
8515;BME280;4295;51.024;7.000;2022-12-24T09:48:33;112997.00;;;-14.18;100.00
8515;BME280;4295;51.024;7.000;2022-12-24T09:53:41;108821.53;;;-14.08;100.00
8515;BME280;4295;51.024;7.000;2022-12-24T09:56:21;109777.34;;;-14.14;100.00
8515;BME280;4295;51.024;7.000;2022-12-24T09:59:15;108187.22;;;-14.03;100.00
8515;BME280;4295;51.024;7.000;2022-12-24T10:01:41;108200.69;;;-13.96;100.00
8515;BME280;4295;51.024;7.000;2022-12-24T10:04:11;109488.88;;;-13.97;100.00
8515;BME280;4295;51.024;7.000;2022-12-24T10:09:14;113026.09;;;-14.03;100.00
8515;BME280;4295;51.024;7.000;2022-12-24T10:11:55;111761.59;;;-13.90;100.00
8515;BME280;4295;51.024;7.000;2022-12-24T10:23:20;116981.50;;;-13.65;100.00
8515;BME280;4295;51.024;7.000;2022-12-24T10:28:46;122805.03;;;-13.66;100.00
8515;BME280;4295;51.024;7.000;2022-12-24T10:31:13;122822.44;;;-13.58;100.00
8515;BME280;4295;51.024;7.000;2022-12-24T10:33:48;124770.41;;;-13.57;100.00
8515;BME280;4295;51.024;7.000;2022-12-24T10:36:20;123179.16;;;-13.43;100.00
8515;BME280;4295;51.024;7.000;2022-12-24T10:38:47;124470.41;;;-13.46;100.00
8515;BME280;4295;51.024;7.000;2022-12-24T10:41:13;124490.25;;;-13.37;100.00
8515;BME280;4295;51.024;7.000;2022-12-24T10:43:40;125448.81;;;-13.43;100.00
8515;BME280;4295;51.024;7.000;2022-12-24T10:46:16;125748.69;;;-13.54;100.00
8515;BME280;4295;51.024;7.000;2022-12-24T10:48:53;124799.06;;;-13.44;100.00
8515;BME280;4295;51.024;7.000;2022-12-24T10:54:22;129635.66;;;-13.57;100.00
8515;BME280;4295;51.024;7.000;2022-12-24T10:56:50;128352.06;;;-13.51;100.00
8515;BME280;4295;51.024;7.000;2022-12-24T10:59:26;127385.25;;;-13.48;100.00
8515;BME280;4295;51.024;7.000;2022-12-24T11:01:56;127719.91;;;-13.43;100.00
8515;BME280;4295;51.024;7.000;2022-12-24T11:04:27;128384.97;;;-13.36;100.00
8515;BME280;4295;51.024;7.000;2022-12-24T11:06:56;128692.53;;;-13.44;100.00
8515;BME280;4295;51.024;7.000;2022-12-24T11:09:27;128038.81;;;-13.46;100.00
8515;BME280;4295;51.024;7.000;2022-12-24T11:11:58;128075.06;;;-13.30;100.00
8515;BME280;4295;51.024;7.000;2022-12-24T11:14:26;128092.03;;;-13.22;100.00
8515;BME280;4295;51.024;7.000;2022-12-24T11:16:55;130030.41;;;-13.27;100.00
8515;BME280;4295;51.024;7.000;2022-12-24T11:19:32;131656.16;;;-13.26;100.00
8515;BME280;4295;51.024;7.000;2022-12-24T11:22:03;132974.06;;;-13.19;100.00
8515;BME280;4295;51.024;7.000;2022-12-24T11:24:32;133969.78;;;-13.10;100.00
8515;BME280;4295;51.024;7.000;2022-12-24T11:27:28;140389.44;;;-13.20;100.00
8515;BME280;4295;51.024;7.000;2022-12-24T11:30:30;141469.44;;;-13.05;100.00
8515;BME280;4295;51.024;7.000;2022-12-24T11:35:24;141471.94;;;-13.04;100.00
8515;BME280;4295;51.024;7.000;2022-12-24T11:38:09;141495.66;;;-12.94;100.00
8515;BME280;4295;51.024;7.000;2022-12-24T11:40:39;141496.88;;;-12.94;100.00
8515;BME280;4295;51.024;7.000;2022-12-24T11:43:06;141514.38;;;-12.87;100.00
8515;BME280;4295;51.024;7.000;2022-12-24T11:45:37;141541.81;;;-12.76;100.00
8515;BME280;4295;51.024;7.000;2022-12-24T11:48:23;141584.28;;;-12.59;100.00
8515;BME280;4295;51.024;7.000;2022-12-24T11:50:59;141598.00;;;-12.53;100.00
8515;BME280;4295;51.024;7.000;2022-12-24T11:53:30;141586.78;;;-12.58;100.00
8515;BME280;4295;51.024;7.000;2022-12-24T11:56:00;141555.56;;;-12.70;100.00
8515;BME280;4295;51.024;7.000;2022-12-24T12:03:52;141627.97;;;-12.41;100.00
8515;BME280;4295;51.024;7.000;2022-12-24T12:06:32;141596.78;;;-12.53;100.00
8515;BME280;4295;51.024;7.000;2022-12-24T12:11:50;141618.00;;;-12.45;100.00
8515;BME280;4295;51.024;7.000;2022-12-24T12:14:39;141568.06;;;-12.65;100.00
8515;BME280;4295;51.024;7.000;2022-12-24T12:17:27;141573.06;;;-12.63;100.00
8515;BME280;4295;51.024;7.000;2022-12-24T12:19:58;141591.75;;;-12.56;100.00
8515;BME280;4295;51.024;7.000;2022-12-24T12:25:03;141629.22;;;-12.40;100.00
8515;BME280;4295;51.024;7.000;2022-12-24T12:27:34;141652.97;;;-12.31;100.00
8515;BME280;4295;51.024;7.000;2022-12-24T12:30:22;141612.97;;;-12.47;100.00
8515;BME280;4295;51.024;7.000;2022-12-24T12:33:05;141604.28;;;-12.50;100.00
8515;BME280;4295;51.024;7.000;2022-12-24T12:35:36;141626.72;;;-12.41;100.00
8515;BME280;4295;51.024;7.000;2022-12-24T12:38:07;141595.53;;;-12.54;100.00
8515;BME280;4295;51.024;7.000;2022-12-24T12:49:24;141609.25;;;-12.48;100.00
8515;BME280;4295;51.024;7.000;2022-12-24T12:58:15;141640.50;;;-12.36;100.00
8515;BME280;4295;51.024;7.000;2022-12-24T13:00:46;141667.97;;;-12.25;100.00
8515;BME280;4295;51.024;7.000;2022-12-24T13:18:02;141817.84;;;-11.64;100.00
8515;BME280;4295;51.024;7.000;2022-12-24T13:20:38;141767.91;;;-11.84;100.00
8515;BME280;4295;51.024;7.000;2022-12-24T13:23:20;141691.72;;;-12.15;100.00
8515;BME280;4295;51.024;7.000;2022-12-24T13:25:49;141717.94;;;-12.05;100.00
8515;BME280;4295;51.024;7.000;2022-12-24T13:30:50;141701.69;;;-12.11;100.00
8515;BME280;4295;51.024;7.000;2022-12-24T13:36:02;141716.69;;;-12.05;100.00
8515;BME280;4295;51.024;7.000;2022-12-24T13:49:24;141634.22;;;-12.38;100.00
8515;BME280;4295;51.024;7.000;2022-12-24T13:51:51;141672.94;;;-12.23;100.00
8515;BME280;4295;51.024;7.000;2022-12-24T13:54:29;141716.69;;;-12.05;100.00
8515;BME280;4295;51.024;7.000;2022-12-24T13:56:54;141737.91;;;-11.97;100.00
8515;BME280;4295;51.024;7.000;2022-12-24T14:01:48;141694.19;;;-12.14;100.00
8515;BME280;4295;51.024;7.000;2022-12-24T14:04:33;141707.91;;;-12.09;100.00
8515;BME280;4295;51.024;7.000;2022-12-24T14:07:02;141674.22;;;-12.22;100.00
8515;BME280;4295;51.024;7.000;2022-12-24T14:09:29;141672.94;;;-12.23;100.00
8515;BME280;4295;51.024;7.000;2022-12-24T14:14:35;141631.75;;;-12.39;100.00
8515;BME280;4295;51.024;7.000;2022-12-24T14:17:12;141642.97;;;-12.35;100.00
8515;BME280;4295;51.024;7.000;2022-12-24T14:19:45;141651.72;;;-12.31;100.00
8515;BME280;4295;51.024;7.000;2022-12-24T14:22:36;141604.28;;;-12.50;100.00
8515;BME280;4295;51.024;7.000;2022-12-24T14:25:08;141540.56;;;-12.76;100.00
8515;BME280;4295;51.024;7.000;2022-12-24T14:27:42;141536.84;;;-12.78;100.00
8515;BME280;4295;51.024;7.000;2022-12-24T14:30:17;141504.38;;;-12.91;100.00
8515;BME280;4295;51.024;7.000;2022-12-24T14:32:43;141513.13;;;-12.87;100.00
8515;BME280;4295;51.024;7.000;2022-12-24T14:37:38;141498.13;;;-12.93;100.00
8515;BME280;4295;51.024;7.000;2022-12-24T14:40:05;141485.66;;;-12.98;100.00
8515;BME280;4295;51.024;7.000;2022-12-24T14:42:41;141458.28;;;-13.09;100.00
8515;BME280;4295;51.024;7.000;2022-12-24T14:45:24;141444.53;;;-13.15;100.00
8515;BME280;4295;51.024;7.000;2022-12-24T14:53:30;141370.91;;;-13.45;100.00
8515;BME280;4295;51.024;7.000;2022-12-24T14:56:08;141349.72;;;-13.53;100.00
8515;BME280;4295;51.024;7.000;2022-12-24T14:58:37;141370.91;;;-13.45;100.00
8515;BME280;4295;51.024;7.000;2022-12-24T15:01:26;141369.66;;;-13.45;100.00